CST,Max TemperatureF,Mean TemperatureF,Min TemperatureF,Max Dew PointF,MeanDew PointF,Min DewpointF,Max Humidity, Mean Humidity, Min Humidity, Max Sea Level PressureIn, Mean Sea Level PressureIn, Min Sea Level PressureIn, Max VisibilityMiles, Mean VisibilityMiles, Min VisibilityMiles, Max Wind SpeedMPH, Mean Wind SpeedMPH, Max Gust SpeedMPH,PrecipitationIn, CloudCover, Events, WindDirDegrees
2014-2-1,86,78,71,75,70,63,78,72,66,29.94,29.88,29.81,6,6,6,10,1,,0.00,1,,172
2014-2-2,87,79,71,77,73,66,83,76,66,29.95,29.87,29.80,7,7,7,17,8,29,0.00,1,,271
2014-2-3,84,78,71,77,73,66,83,79,74,29.98,29.91,29.84,7,6,6,10,2,,0.00,2,,157
2014-2-4,86,78,71,75,71,64,79,74,66,29.95,29.89,29.81,6,6,5,17,2,,0.00,2,,217
2014-2-5,86,78,69,75,70,63,78,70,66,29.98,29.92,29.87,6,6,6,0,0,,0.00,2,,-1
2014-2-6,86,78,71,75,72,63,74,71,69,30.00,29.94,29.88,6,6,6,12,2,,0.00,1,,200
2014-2-7,87,79,71,79,74,66,88,76,69,30.01,29.94,29.88,7,7,7,9,1,,0.00,3,,170
2014-2-8,86,78,71,77,75,68,88,78,74,30.00,29.94,29.88,7,7,7,8,0,,0.00,2,,150
2014-2-9,89,81,73,77,73,68,83,73,66,29.99,29.92,29.86,7,7,7,0,0,,0.00,1,,-1
2014-2-10,87,79,71,77,74,64,83,75,70,29.97,29.85,29.21,7,7,7,0,0,,0.00,2,,-1
2014-2-11,87,81,75,77,74,66,74,72,70,29.96,29.91,29.84,7,6,6,8,1,,0.00,2,,0
2014-2-12,84,80,75,75,72,64,74,72,69,29.97,29.92,29.86,7,6,6,9,3,,0.00,2,,164
2014-2-13,86,78,71,75,71,64,78,71,66,29.98,29.92,29.84,6,6,6,0,0,,0.00,2,,-1
2014-2-14,86,78,71,75,71,63,78,71,65,29.98,29.93,29.85,6,6,6,8,0,,0.00,1,,250
2014-2-15,89,81,73,75,73,66,78,70,62,30.02,29.96,29.91,6,6,6,9,4,,0.00,0,,225
2014-2-16,87,79,71,75,72,66,83,71,66,30.02,29.94,29.82,7,7,7,12,3,,0.00,0,,270
2014-2-17,89,81,73,77,74,68,83,72,66,30.00,29.89,29.41,7,7,7,8,1,,0.00,0,,170
2014-2-18,89,81,73,77,72,66,78,69,61,29.99,29.92,29.87,7,7,7,12,2,,0.00,3,,222
2014-2-19,87,80,73,77,73,63,74,69,65,29.94,29.87,29.61,7,7,7,9,2,,0.00,1,,0
2014-2-20,87,79,71,77,73,63,83,75,69,29.95,29.88,29.81,7,7,7,17,6,29,0.00,6,,249
2014-2-21,89,79,69,75,72,64,83,72,62,29.96,29.88,29.54,7,7,7,9,2,,0.00,0,,0
2014-2-22,91,82,73,77,74,64,79,69,59,29.96,29.90,29.85,7,7,7,12,3,,0.00,1,,230
2014-2-23,89,81,73,77,74,68,83,75,66,30.00,29.91,29.84,7,7,7,9,2,,0.00,8,,248
2014-2-24,89,81,73,77,74,68,83,73,66,29.98,29.89,29.59,7,7,7,0,0,,0.00,3,,-1
2014-2-25,89,81,73,75,73,64,79,71,62,29.96,29.90,29.84,7,6,4,12,2,,0.00,2,,270
2014-2-26,89,82,75,75,73,64,74,68,62,29.92,29.86,29.79,6,6,5,17,6,29,0.00,1,,238
2014-2-27,87,81,75,75,71,66,73,66,62,29.95,29.83,29.10,6,6,5,12,3,,0.00,2,,215
2014-2-28,87,81,75,79,74,68,84,74,66,30.01,29.91,29.30,7,6,5,12,2,,0.00,3,,220